sensor_id;sensor_type;location;lat;lon;timestamp;P1;durP1;ratioP1;P2;durP2;ratioP2
39970;SDS011;35425;51.142;17.178;2024-01-27T00:00:50;1.95;;;0.63;;
39970;SDS011;35425;51.142;17.178;2024-01-27T00:03:18;1.25;;;0.40;;
39970;SDS011;35425;51.142;17.178;2024-01-27T00:05:44;1.42;;;0.50;;
39970;SDS011;35425;51.142;17.178;2024-01-27T00:08:15;2.72;;;0.80;;
39970;SDS011;35425;51.142;17.178;2024-01-27T00:10:46;1.92;;;0.50;;
39970;SDS011;35425;51.142;17.178;2024-01-27T00:13:13;2.95;;;0.85;;
39970;SDS011;35425;51.142;17.178;2024-01-27T00:15:39;1.13;;;0.50;;
39970;SDS011;35425;51.142;17.178;2024-01-27T00:18:06;2.17;;;0.80;;
39970;SDS011;35425;51.142;17.178;2024-01-27T00:20:33;1.45;;;0.32;;
39970;SDS011;35425;51.142;17.178;2024-01-27T00:23:00;1.77;;;0.65;;
39970;SDS011;35425;51.142;17.178;2024-01-27T00:25:27;1.48;;;0.47;;
39970;SDS011;35425;51.142;17.178;2024-01-27T00:27:54;1.95;;;0.50;;
39970;SDS011;35425;51.142;17.178;2024-01-27T00:30:21;1.10;;;0.50;;
39970;SDS011;35425;51.142;17.178;2024-01-27T00:32:48;1.20;;;0.43;;
39970;SDS011;35425;51.142;17.178;2024-01-27T00:35:15;1.23;;;0.43;;
39970;SDS011;35425;51.142;17.178;2024-01-27T00:37:42;1.48;;;0.60;;
39970;SDS011;35425;51.142;17.178;2024-01-27T00:40:09;2.45;;;0.50;;
39970;SDS011;35425;51.142;17.178;2024-01-27T00:42:37;1.98;;;0.93;;
39970;SDS011;35425;51.142;17.178;2024-01-27T00:45:04;1.77;;;0.70;;
39970;SDS011;35425;51.142;17.178;2024-01-27T00:47:31;1.50;;;0.50;;
39970;SDS011;35425;51.142;17.178;2024-01-27T00:49:58;1.45;;;0.50;;
39970;SDS011;35425;51.142;17.178;2024-01-27T00:52:25;1.42;;;0.50;;
39970;SDS011;35425;51.142;17.178;2024-01-27T00:54:52;0.88;;;0.40;;
39970;SDS011;35425;51.142;17.178;2024-01-27T00:57:22;2.10;;;0.75;;
39970;SDS011;35425;51.142;17.178;2024-01-27T00:59:49;1.05;;;0.38;;
39970;SDS011;35425;51.142;17.178;2024-01-27T01:02:16;2.55;;;0.70;;
39970;SDS011;35425;51.142;17.178;2024-01-27T01:04:43;1.08;;;0.50;;
39970;SDS011;35425;51.142;17.178;2024-01-27T01:07:11;2.67;;;0.73;;
39970;SDS011;35425;51.142;17.178;2024-01-27T01:09:38;1.95;;;0.57;;
39970;SDS011;35425;51.142;17.178;2024-01-27T01:12:05;2.08;;;0.70;;
39970;SDS011;35425;51.142;17.178;2024-01-27T01:14:32;1.77;;;0.40;;
39970;SDS011;35425;51.142;17.178;2024-01-27T01:16:59;2.28;;;0.80;;
39970;SDS011;35425;51.142;17.178;2024-01-27T01:19:26;1.85;;;0.50;;
39970;SDS011;35425;51.142;17.178;2024-01-27T01:21:53;1.23;;;0.40;;
39970;SDS011;35425;51.142;17.178;2024-01-27T01:24:20;0.93;;;0.40;;
39970;SDS011;35425;51.142;17.178;2024-01-27T01:26:48;2.35;;;0.60;;
39970;SDS011;35425;51.142;17.178;2024-01-27T01:29:18;2.22;;;0.47;;
39970;SDS011;35425;51.142;17.178;2024-01-27T01:31:45;2.05;;;0.50;;
39970;SDS011;35425;51.142;17.178;2024-01-27T01:34:23;1.88;;;1.00;;
39970;SDS011;35425;51.142;17.178;2024-01-27T01:36:50;1.77;;;0.50;;
39970;SDS011;35425;51.142;17.178;2024-01-27T01:39:17;2.25;;;0.50;;
39970;SDS011;35425;51.142;17.178;2024-01-27T01:41:45;2.28;;;0.55;;
39970;SDS011;35425;51.142;17.178;2024-01-27T01:44:12;1.15;;;0.50;;
39970;SDS011;35425;51.142;17.178;2024-01-27T01:46:41;3.03;;;0.57;;
39970;SDS011;35425;51.142;17.178;2024-01-27T01:49:09;1.50;;;0.50;;
39970;SDS011;35425;51.142;17.178;2024-01-27T01:51:37;1.42;;;0.50;;
39970;SDS011;35425;51.142;17.178;2024-01-27T01:54:04;1.75;;;0.60;;
39970;SDS011;35425;51.142;17.178;2024-01-27T01:56:32;1.65;;;0.57;;
39970;SDS011;35425;51.142;17.178;2024-01-27T01:58:59;2.05;;;0.63;;
39970;SDS011;35425;51.142;17.178;2024-01-27T02:01:30;2.83;;;0.65;;
39970;SDS011;35425;51.142;17.178;2024-01-27T02:03:57;2.25;;;0.63;;
39970;SDS011;35425;51.142;17.178;2024-01-27T02:06:24;1.73;;;0.50;;
39970;SDS011;35425;51.142;17.178;2024-01-27T02:08:52;1.98;;;0.55;;
39970;SDS011;35425;51.142;17.178;2024-01-27T02:11:19;2.85;;;1.05;;
39970;SDS011;35425;51.142;17.178;2024-01-27T02:13:46;2.53;;;0.70;;
39970;SDS011;35425;51.142;17.178;2024-01-27T02:16:16;2.30;;;0.60;;
39970;SDS011;35425;51.142;17.178;2024-01-27T02:18:44;1.55;;;0.50;;
39970;SDS011;35425;51.142;17.178;2024-01-27T02:21:12;1.85;;;1.10;;
39970;SDS011;35425;51.142;17.178;2024-01-27T02:23:42;1.52;;;0.43;;
39970;SDS011;35425;51.142;17.178;2024-01-27T02:26:09;2.72;;;0.47;;
39970;SDS011;35425;51.142;17.178;2024-01-27T02:28:36;1.40;;;0.50;;
39970;SDS011;35425;51.142;17.178;2024-01-27T02:31:04;1.80;;;0.50;;
39970;SDS011;35425;51.142;17.178;2024-01-27T02:33:31;2.53;;;0.60;;
39970;SDS011;35425;51.142;17.178;2024-01-27T02:36:01;1.98;;;0.77;;
39970;SDS011;35425;51.142;17.178;2024-01-27T02:38:28;2.30;;;0.70;;
39970;SDS011;35425;51.142;17.178;2024-01-27T02:40:55;1.88;;;0.50;;
39970;SDS011;35425;51.142;17.178;2024-01-27T02:43:22;2.40;;;0.80;;
39970;SDS011;35425;51.142;17.178;2024-01-27T02:45:49;1.60;;;0.65;;
39970;SDS011;35425;51.142;17.178;2024-01-27T02:48:17;1.25;;;0.50;;
39970;SDS011;35425;51.142;17.178;2024-01-27T02:50:44;2.65;;;0.60;;
39970;SDS011;35425;51.142;17.178;2024-01-27T02:53:12;1.92;;;0.52;;
39970;SDS011;35425;51.142;17.178;2024-01-27T02:55:43;3.20;;;0.60;;
39970;SDS011;35425;51.142;17.178;2024-01-27T02:58:10;2.53;;;0.95;;
39970;SDS011;35425;51.142;17.178;2024-01-27T03:00:37;2.50;;;0.50;;
39970;SDS011;35425;51.142;17.178;2024-01-27T03:03:04;2.70;;;0.65;;
39970;SDS011;35425;51.142;17.178;2024-01-27T03:05:31;1.85;;;0.50;;
39970;SDS011;35425;51.142;17.178;2024-01-27T03:07:58;2.03;;;0.55;;
39970;SDS011;35425;51.142;17.178;2024-01-27T03:10:25;2.20;;;0.57;;
39970;SDS011;35425;51.142;17.178;2024-01-27T03:12:52;2.25;;;0.47;;
39970;SDS011;35425;51.142;17.178;2024-01-27T03:15:20;1.42;;;0.40;;
39970;SDS011;35425;51.142;17.178;2024-01-27T03:17:47;2.03;;;0.45;;
39970;SDS011;35425;51.142;17.178;2024-01-27T03:20:14;2.28;;;1.17;;
39970;SDS011;35425;51.142;17.178;2024-01-27T03:22:41;1.55;;;0.63;;
39970;SDS011;35425;51.142;17.178;2024-01-27T03:25:09;1.58;;;0.40;;
39970;SDS011;35425;51.142;17.178;2024-01-27T03:27:37;1.42;;;0.52;;
39970;SDS011;35425;51.142;17.178;2024-01-27T03:30:05;1.73;;;0.50;;
39970;SDS011;35425;51.142;17.178;2024-01-27T03:32:32;2.58;;;0.90;;
39970;SDS011;35425;51.142;17.178;2024-01-27T03:34:59;2.08;;;0.80;;
39970;SDS011;35425;51.142;17.178;2024-01-27T03:37:27;2.40;;;0.77;;
39970;SDS011;35425;51.142;17.178;2024-01-27T03:39:58;2.30;;;0.68;;
39970;SDS011;35425;51.142;17.178;2024-01-27T03:42:28;2.33;;;0.77;;
39970;SDS011;35425;51.142;17.178;2024-01-27T03:44:56;2.95;;;0.70;;
39970;SDS011;35425;51.142;17.178;2024-01-27T03:47:22;2.53;;;0.60;;
39970;SDS011;35425;51.142;17.178;2024-01-27T03:49:50;1.90;;;0.57;;
39970;SDS011;35425;51.142;17.178;2024-01-27T03:52:17;2.35;;;0.50;;
39970;SDS011;35425;51.142;17.178;2024-01-27T03:54:44;1.67;;;0.50;;
39970;SDS011;35425;51.142;17.178;2024-01-27T03:57:11;2.95;;;0.60;;
39970;SDS011;35425;51.142;17.178;2024-01-27T03:59:42;1.77;;;0.50;;
39970;SDS011;35425;51.142;17.178;2024-01-27T04:02:09;2.42;;;0.70;;
39970;SDS011;35425;51.142;17.178;2024-01-27T04:04:36;3.00;;;0.90;;
39970;SDS011;35425;51.142;17.178;2024-01-27T04:07:12;1.77;;;0.60;;
39970;SDS011;35425;51.142;17.178;2024-01-27T04:09:42;1.67;;;0.57;;
39970;SDS011;35425;51.142;17.178;2024-01-27T04:12:09;3.20;;;0.75;;
39970;SDS011;35425;51.142;17.178;2024-01-27T04:14:36;2.85;;;0.80;;
39970;SDS011;35425;51.142;17.178;2024-01-27T04:17:04;2.28;;;0.77;;
39970;SDS011;35425;51.142;17.178;2024-01-27T04:19:32;1.88;;;0.70;;
39970;SDS011;35425;51.142;17.178;2024-01-27T04:22:00;2.63;;;0.63;;
39970;SDS011;35425;51.142;17.178;2024-01-27T04:24:30;1.98;;;0.57;;
39970;SDS011;35425;51.142;17.178;2024-01-27T04:26:58;3.55;;;0.80;;
39970;SDS011;35425;51.142;17.178;2024-01-27T04:29:25;1.38;;;0.50;;
39970;SDS011;35425;51.142;17.178;2024-01-27T04:31:52;2.67;;;0.63;;
39970;SDS011;35425;51.142;17.178;2024-01-27T04:34:19;2.45;;;0.73;;
39970;SDS011;35425;51.142;17.178;2024-01-27T04:36:46;2.20;;;0.70;;
39970;SDS011;35425;51.142;17.178;2024-01-27T04:39:13;1.95;;;0.50;;
39970;SDS011;35425;51.142;17.178;2024-01-27T04:41:43;1.63;;;0.65;;
39970;SDS011;35425;51.142;17.178;2024-01-27T04:44:10;3.00;;;0.75;;
39970;SDS011;35425;51.142;17.178;2024-01-27T04:46:37;2.40;;;1.00;;
39970;SDS011;35425;51.142;17.178;2024-01-27T04:49:04;2.85;;;0.90;;
39970;SDS011;35425;51.142;17.178;2024-01-27T04:51:31;1.95;;;0.63;;
39970;SDS011;35425;51.142;17.178;2024-01-27T04:53:58;2.25;;;0.47;;
39970;SDS011;35425;51.142;17.178;2024-01-27T04:56:25;2.33;;;0.60;;
39970;SDS011;35425;51.142;17.178;2024-01-27T04:58:52;1.50;;;0.47;;
39970;SDS011;35425;51.142;17.178;2024-01-27T05:01:19;2.72;;;0.85;;
39970;SDS011;35425;51.142;17.178;2024-01-27T05:03:47;2.88;;;0.85;;
39970;SDS011;35425;51.142;17.178;2024-01-27T05:06:14;1.92;;;0.60;;
39970;SDS011;35425;51.142;17.178;2024-01-27T05:08:42;1.88;;;0.60;;
39970;SDS011;35425;51.142;17.178;2024-01-27T05:11:09;2.30;;;0.60;;
39970;SDS011;35425;51.142;17.178;2024-01-27T05:13:36;2.58;;;0.80;;
39970;SDS011;35425;51.142;17.178;2024-01-27T05:16:04;1.33;;;0.50;;
39970;SDS011;35425;51.142;17.178;2024-01-27T05:18:31;1.70;;;0.50;;
39970;SDS011;35425;51.142;17.178;2024-01-27T05:20:58;2.40;;;0.68;;
39970;SDS011;35425;51.142;17.178;2024-01-27T05:23:25;3.15;;;0.47;;
39970;SDS011;35425;51.142;17.178;2024-01-27T05:25:52;1.58;;;0.50;;
39970;SDS011;35425;51.142;17.178;2024-01-27T05:28:21;2.50;;;0.70;;
39970;SDS011;35425;51.142;17.178;2024-01-27T05:30:48;1.77;;;0.70;;
39970;SDS011;35425;51.142;17.178;2024-01-27T05:33:15;2.28;;;0.70;;
39970;SDS011;35425;51.142;17.178;2024-01-27T05:35:43;2.35;;;0.70;;
39970;SDS011;35425;51.142;17.178;2024-01-27T05:38:10;2.85;;;0.60;;
39970;SDS011;35425;51.142;17.178;2024-01-27T05:40:37;3.15;;;0.57;;
39970;SDS011;35425;51.142;17.178;2024-01-27T05:43:07;2.60;;;0.70;;
39970;SDS011;35425;51.142;17.178;2024-01-27T05:45:34;1.73;;;0.52;;
39970;SDS011;35425;51.142;17.178;2024-01-27T05:48:01;2.15;;;0.80;;
39970;SDS011;35425;51.142;17.178;2024-01-27T05:50:29;2.38;;;0.60;;
39970;SDS011;35425;51.142;17.178;2024-01-27T05:53:00;2.80;;;0.85;;
39970;SDS011;35425;51.142;17.178;2024-01-27T05:55:27;1.05;;;0.50;;
39970;SDS011;35425;51.142;17.178;2024-01-27T05:57:55;2.25;;;0.52;;
39970;SDS011;35425;51.142;17.178;2024-01-27T06:00:27;2.67;;;0.60;;
39970;SDS011;35425;51.142;17.178;2024-01-27T06:02:54;1.75;;;0.60;;
39970;SDS011;35425;51.142;17.178;2024-01-27T06:05:21;3.60;;;0.70;;
39970;SDS011;35425;51.142;17.178;2024-01-27T06:07:49;3.08;;;0.82;;
39970;SDS011;35425;51.142;17.178;2024-01-27T06:10:28;2.25;;;0.85;;
39970;SDS011;35425;51.142;17.178;2024-01-27T06:13:03;1.42;;;0.60;;
39970;SDS011;35425;51.142;17.178;2024-01-27T06:15:31;1.30;;;0.40;;
39970;SDS011;35425;51.142;17.178;2024-01-27T06:17:59;1.95;;;0.63;;
39970;SDS011;35425;51.142;17.178;2024-01-27T06:20:28;2.10;;;0.55;;
39970;SDS011;35425;51.142;17.178;2024-01-27T06:22:55;3.22;;;0.57;;
39970;SDS011;35425;51.142;17.178;2024-01-27T06:25:21;2.25;;;0.80;;
39970;SDS011;35425;51.142;17.178;2024-01-27T06:27:48;2.50;;;0.65;;
39970;SDS011;35425;51.142;17.178;2024-01-27T06:30:15;1.70;;;0.70;;
39970;SDS011;35425;51.142;17.178;2024-01-27T06:32:43;1.75;;;0.65;;
39970;SDS011;35425;51.142;17.178;2024-01-27T06:35:10;1.83;;;0.70;;
39970;SDS011;35425;51.142;17.178;2024-01-27T06:37:37;1.48;;;0.80;;
39970;SDS011;35425;51.142;17.178;2024-01-27T06:40:04;1.83;;;0.55;;
39970;SDS011;35425;51.142;17.178;2024-01-27T06:42:35;2.33;;;0.63;;
39970;SDS011;35425;51.142;17.178;2024-01-27T06:45:02;2.60;;;0.88;;
39970;SDS011;35425;51.142;17.178;2024-01-27T06:47:29;3.10;;;0.80;;
39970;SDS011;35425;51.142;17.178;2024-01-27T06:49:56;3.63;;;0.95;;
39970;SDS011;35425;51.142;17.178;2024-01-27T06:52:24;3.13;;;0.80;;
39970;SDS011;35425;51.142;17.178;2024-01-27T06:54:51;2.72;;;0.95;;
39970;SDS011;35425;51.142;17.178;2024-01-27T06:57:22;4.43;;;0.80;;
39970;SDS011;35425;51.142;17.178;2024-01-27T06:59:50;1.58;;;0.70;;
39970;SDS011;35425;51.142;17.178;2024-01-27T07:02:23;3.53;;;0.93;;
39970;SDS011;35425;51.142;17.178;2024-01-27T07:04:51;2.50;;;0.57;;
39970;SDS011;35425;51.142;17.178;2024-01-27T07:07:22;2.90;;;1.00;;
39970;SDS011;35425;51.142;17.178;2024-01-27T07:09:50;1.40;;;0.52;;
39970;SDS011;35425;51.142;17.178;2024-01-27T07:12:17;3.00;;;0.88;;
39970;SDS011;35425;51.142;17.178;2024-01-27T07:14:44;3.45;;;0.90;;
39970;SDS011;35425;51.142;17.178;2024-01-27T07:17:11;2.42;;;1.00;;
39970;SDS011;35425;51.142;17.178;2024-01-27T07:19:44;1.85;;;0.63;;
39970;SDS011;35425;51.142;17.178;2024-01-27T07:22:11;3.25;;;0.95;;
39970;SDS011;35425;51.142;17.178;2024-01-27T07:24:41;2.67;;;0.50;;
39970;SDS011;35425;51.142;17.178;2024-01-27T07:27:12;2.63;;;0.65;;
39970;SDS011;35425;51.142;17.178;2024-01-27T07:29:39;2.67;;;1.23;;
39970;SDS011;35425;51.142;17.178;2024-01-27T07:32:06;3.38;;;0.90;;
39970;SDS011;35425;51.142;17.178;2024-01-27T07:34:35;2.33;;;0.60;;
39970;SDS011;35425;51.142;17.178;2024-01-27T07:37:02;2.35;;;0.90;;
39970;SDS011;35425;51.142;17.178;2024-01-27T07:39:29;1.30;;;0.57;;
39970;SDS011;35425;51.142;17.178;2024-01-27T07:41:56;1.92;;;0.57;;
39970;SDS011;35425;51.142;17.178;2024-01-27T07:44:23;3.08;;;0.73;;
39970;SDS011;35425;51.142;17.178;2024-01-27T07:46:50;2.78;;;0.75;;
39970;SDS011;35425;51.142;17.178;2024-01-27T07:49:20;3.05;;;1.00;;
39970;SDS011;35425;51.142;17.178;2024-01-27T07:51:48;2.38;;;0.70;;
39970;SDS011;35425;51.142;17.178;2024-01-27T07:54:15;2.55;;;0.63;;
39970;SDS011;35425;51.142;17.178;2024-01-27T07:56:42;1.65;;;0.50;;
39970;SDS011;35425;51.142;17.178;2024-01-27T07:59:09;3.20;;;0.82;;
39970;SDS011;35425;51.142;17.178;2024-01-27T08:01:43;2.42;;;0.60;;
39970;SDS011;35425;51.142;17.178;2024-01-27T08:04:10;5.18;;;1.20;;
39970;SDS011;35425;51.142;17.178;2024-01-27T08:06:47;2.42;;;0.80;;
39970;SDS011;35425;51.142;17.178;2024-01-27T08:09:14;2.20;;;0.65;;
39970;SDS011;35425;51.142;17.178;2024-01-27T08:11:41;2.83;;;0.80;;
39970;SDS011;35425;51.142;17.178;2024-01-27T08:14:09;2.65;;;0.90;;
39970;SDS011;35425;51.142;17.178;2024-01-27T08:16:36;2.55;;;0.90;;
39970;SDS011;35425;51.142;17.178;2024-01-27T08:19:03;3.80;;;0.80;;
39970;SDS011;35425;51.142;17.178;2024-01-27T08:21:31;2.42;;;1.27;;
39970;SDS011;35425;51.142;17.178;2024-01-27T08:23:58;2.80;;;1.00;;
39970;SDS011;35425;51.142;17.178;2024-01-27T08:26:25;2.20;;;0.90;;
39970;SDS011;35425;51.142;17.178;2024-01-27T08:28:52;3.63;;;0.90;;
39970;SDS011;35425;51.142;17.178;2024-01-27T08:31:22;3.15;;;1.15;;
39970;SDS011;35425;51.142;17.178;2024-01-27T08:33:49;2.45;;;1.25;;
39970;SDS011;35425;51.142;17.178;2024-01-27T08:36:17;2.42;;;0.77;;
39970;SDS011;35425;51.142;17.178;2024-01-27T08:38:44;3.00;;;0.93;;
39970;SDS011;35425;51.142;17.178;2024-01-27T08:41:11;3.50;;;0.90;;
39970;SDS011;35425;51.142;17.178;2024-01-27T08:43:38;3.10;;;0.80;;
39970;SDS011;35425;51.142;17.178;2024-01-27T08:46:05;4.25;;;1.10;;
39970;SDS011;35425;51.142;17.178;2024-01-27T08:48:34;2.28;;;0.90;;
39970;SDS011;35425;51.142;17.178;2024-01-27T08:51:01;2.17;;;0.90;;
39970;SDS011;35425;51.142;17.178;2024-01-27T08:53:31;3.55;;;0.98;;
39970;SDS011;35425;51.142;17.178;2024-01-27T08:55:58;3.00;;;0.98;;
39970;SDS011;35425;51.142;17.178;2024-01-27T08:58:25;1.92;;;0.75;;
39970;SDS011;35425;51.142;17.178;2024-01-27T09:00:52;3.72;;;1.00;;
39970;SDS011;35425;51.142;17.178;2024-01-27T09:03:19;2.53;;;0.80;;
39970;SDS011;35425;51.142;17.178;2024-01-27T09:05:49;3.20;;;1.00;;
39970;SDS011;35425;51.142;17.178;2024-01-27T09:08:22;3.83;;;0.88;;
39970;SDS011;35425;51.142;17.178;2024-01-27T09:11:00;2.47;;;0.90;;
39970;SDS011;35425;51.142;17.178;2024-01-27T09:13:27;2.30;;;0.93;;
39970;SDS011;35425;51.142;17.178;2024-01-27T09:15:56;2.92;;;1.00;;
39970;SDS011;35425;51.142;17.178;2024-01-27T09:18:23;3.22;;;0.85;;
39970;SDS011;35425;51.142;17.178;2024-01-27T09:20:53;2.95;;;1.10;;
39970;SDS011;35425;51.142;17.178;2024-01-27T09:23:21;3.35;;;1.10;;
39970;SDS011;35425;51.142;17.178;2024-01-27T09:25:51;3.05;;;0.98;;
39970;SDS011;35425;51.142;17.178;2024-01-27T09:28:18;2.53;;;0.88;;
39970;SDS011;35425;51.142;17.178;2024-01-27T09:30:45;2.92;;;0.77;;
39970;SDS011;35425;51.142;17.178;2024-01-27T09:33:14;2.40;;;0.80;;
39970;SDS011;35425;51.142;17.178;2024-01-27T09:35:41;3.90;;;0.93;;
39970;SDS011;35425;51.142;17.178;2024-01-27T09:38:08;1.58;;;0.80;;
39970;SDS011;35425;51.142;17.178;2024-01-27T09:40:36;1.40;;;0.60;;
39970;SDS011;35425;51.142;17.178;2024-01-27T09:43:03;2.53;;;0.75;;
39970;SDS011;35425;51.142;17.178;2024-01-27T09:45:30;2.15;;;0.82;;
39970;SDS011;35425;51.142;17.178;2024-01-27T09:47:58;2.60;;;1.10;;
39970;SDS011;35425;51.142;17.178;2024-01-27T09:50:26;2.85;;;0.95;;
39970;SDS011;35425;51.142;17.178;2024-01-27T09:52:54;3.30;;;1.13;;
39970;SDS011;35425;51.142;17.178;2024-01-27T09:55:21;3.22;;;1.05;;
39970;SDS011;35425;51.142;17.178;2024-01-27T09:57:48;3.85;;;1.00;;
39970;SDS011;35425;51.142;17.178;2024-01-27T10:00:15;3.17;;;1.00;;
39970;SDS011;35425;51.142;17.178;2024-01-27T10:02:45;3.10;;;1.20;;
39970;SDS011;35425;51.142;17.178;2024-01-27T10:05:13;2.65;;;0.90;;
39970;SDS011;35425;51.142;17.178;2024-01-27T10:07:41;2.72;;;0.80;;
39970;SDS011;35425;51.142;17.178;2024-01-27T10:10:09;3.63;;;1.10;;
39970;SDS011;35425;51.142;17.178;2024-01-27T10:12:40;2.35;;;0.85;;
39970;SDS011;35425;51.142;17.178;2024-01-27T10:15:20;3.58;;;1.10;;
39970;SDS011;35425;51.142;17.178;2024-01-27T10:18:03;2.40;;;0.90;;
39970;SDS011;35425;51.142;17.178;2024-01-27T10:20:31;2.15;;;0.75;;
39970;SDS011;35425;51.142;17.178;2024-01-27T10:23:19;2.97;;;0.77;;
39970;SDS011;35425;51.142;17.178;2024-01-27T10:25:46;1.95;;;0.60;;
39970;SDS011;35425;51.142;17.178;2024-01-27T10:28:15;2.90;;;0.90;;
39970;SDS011;35425;51.142;17.178;2024-01-27T10:30:50;4.70;;;0.95;;
39970;SDS011;35425;51.142;17.178;2024-01-27T10:33:17;2.55;;;1.30;;
39970;SDS011;35425;51.142;17.178;2024-01-27T10:35:44;2.95;;;1.02;;
39970;SDS011;35425;51.142;17.178;2024-01-27T10:38:11;2.90;;;1.00;;
39970;SDS011;35425;51.142;17.178;2024-01-27T10:40:41;2.65;;;0.93;;
39970;SDS011;35425;51.142;17.178;2024-01-27T10:43:08;2.05;;;1.02;;
39970;SDS011;35425;51.142;17.178;2024-01-27T10:45:37;3.08;;;0.68;;
39970;SDS011;35425;51.142;17.178;2024-01-27T10:48:05;2.22;;;1.10;;
39970;SDS011;35425;51.142;17.178;2024-01-27T10:50:37;2.75;;;1.02;;
39970;SDS011;35425;51.142;17.178;2024-01-27T10:53:16;3.97;;;1.13;;
39970;SDS011;35425;51.142;17.178;2024-01-27T10:55:47;2.13;;;0.90;;
39970;SDS011;35425;51.142;17.178;2024-01-27T10:58:14;3.45;;;1.10;;
39970;SDS011;35425;51.142;17.178;2024-01-27T11:00:41;4.32;;;1.10;;
39970;SDS011;35425;51.142;17.178;2024-01-27T11:03:10;3.20;;;0.95;;
39970;SDS011;35425;51.142;17.178;2024-01-27T11:05:40;3.05;;;0.80;;
39970;SDS011;35425;51.142;17.178;2024-01-27T11:08:08;3.55;;;1.08;;
39970;SDS011;35425;51.142;17.178;2024-01-27T11:10:36;2.58;;;0.90;;
39970;SDS011;35425;51.142;17.178;2024-01-27T11:13:05;2.75;;;1.02;;
39970;SDS011;35425;51.142;17.178;2024-01-27T11:15:33;2.88;;;1.23;;
39970;SDS011;35425;51.142;17.178;2024-01-27T11:18:00;3.75;;;1.40;;
39970;SDS011;35425;51.142;17.178;2024-01-27T11:20:30;1.98;;;0.90;;
39970;SDS011;35425;51.142;17.178;2024-01-27T11:23:10;3.83;;;1.00;;
39970;SDS011;35425;51.142;17.178;2024-01-27T11:25:37;3.47;;;1.10;;
39970;SDS011;35425;51.142;17.178;2024-01-27T11:28:10;4.85;;;1.00;;
39970;SDS011;35425;51.142;17.178;2024-01-27T11:30:40;3.90;;;0.90;;
39970;SDS011;35425;51.142;17.178;2024-01-27T11:33:11;3.27;;;1.00;;
39970;SDS011;35425;51.142;17.178;2024-01-27T11:35:44;3.10;;;0.98;;
39970;SDS011;35425;51.142;17.178;2024-01-27T11:38:14;2.72;;;1.00;;
39970;SDS011;35425;51.142;17.178;2024-01-27T11:40:48;3.90;;;1.05;;
39970;SDS011;35425;51.142;17.178;2024-01-27T11:43:16;3.20;;;1.08;;
39970;SDS011;35425;51.142;17.178;2024-01-27T11:45:43;2.50;;;1.10;;
39970;SDS011;35425;51.142;17.178;2024-01-27T11:48:13;3.35;;;1.35;;
39970;SDS011;35425;51.142;17.178;2024-01-27T11:50:42;3.53;;;1.10;;
39970;SDS011;35425;51.142;17.178;2024-01-27T11:53:09;2.97;;;1.02;;
39970;SDS011;35425;51.142;17.178;2024-01-27T11:55:37;2.95;;;1.10;;
39970;SDS011;35425;51.142;17.178;2024-01-27T11:58:04;3.45;;;0.80;;
39970;SDS011;35425;51.142;17.178;2024-01-27T12:00:32;5.22;;;1.27;;
39970;SDS011;35425;51.142;17.178;2024-01-27T12:02:59;3.20;;;1.02;;
39970;SDS011;35425;51.142;17.178;2024-01-27T12:05:27;3.70;;;1.08;;
39970;SDS011;35425;51.142;17.178;2024-01-27T12:07:54;4.47;;;1.23;;
39970;SDS011;35425;51.142;17.178;2024-01-27T12:10:21;3.60;;;1.25;;
39970;SDS011;35425;51.142;17.178;2024-01-27T12:12:48;3.28;;;0.85;;
39970;SDS011;35425;51.142;17.178;2024-01-27T12:15:18;2.53;;;0.90;;
39970;SDS011;35425;51.142;17.178;2024-01-27T12:17:50;4.57;;;1.40;;
39970;SDS011;35425;51.142;17.178;2024-01-27T12:20:22;2.60;;;0.90;;
39970;SDS011;35425;51.142;17.178;2024-01-27T12:22:49;4.32;;;1.40;;
39970;SDS011;35425;51.142;17.178;2024-01-27T12:25:20;2.85;;;0.98;;
39970;SDS011;35425;51.142;17.178;2024-01-27T12:27:50;4.32;;;1.00;;
39970;SDS011;35425;51.142;17.178;2024-01-27T12:30:43;2.92;;;1.08;;
39970;SDS011;35425;51.142;17.178;2024-01-27T12:33:13;2.97;;;1.00;;
39970;SDS011;35425;51.142;17.178;2024-01-27T12:35:41;2.63;;;0.90;;
39970;SDS011;35425;51.142;17.178;2024-01-27T12:38:09;3.05;;;1.23;;
39970;SDS011;35425;51.142;17.178;2024-01-27T12:40:37;3.97;;;0.95;;
39970;SDS011;35425;51.142;17.178;2024-01-27T12:43:04;4.35;;;1.23;;
39970;SDS011;35425;51.142;17.178;2024-01-27T12:45:31;2.53;;;1.10;;
39970;SDS011;35425;51.142;17.178;2024-01-27T12:48:01;1.90;;;0.93;;
39970;SDS011;35425;51.142;17.178;2024-01-27T12:50:29;4.28;;;1.05;;
39970;SDS011;35425;51.142;17.178;2024-01-27T12:52:57;3.22;;;1.00;;
39970;SDS011;35425;51.142;17.178;2024-01-27T12:55:23;3.53;;;1.10;;
39970;SDS011;35425;51.142;17.178;2024-01-27T12:57:50;3.83;;;1.50;;
39970;SDS011;35425;51.142;17.178;2024-01-27T13:00:17;3.25;;;1.00;;
39970;SDS011;35425;51.142;17.178;2024-01-27T13:02:44;4.35;;;1.33;;
39970;SDS011;35425;51.142;17.178;2024-01-27T13:05:11;4.20;;;1.50;;
39970;SDS011;35425;51.142;17.178;2024-01-27T13:07:38;3.15;;;1.20;;
39970;SDS011;35425;51.142;17.178;2024-01-27T13:10:05;3.42;;;1.15;;
39970;SDS011;35425;51.142;17.178;2024-01-27T13:12:32;2.65;;;0.95;;
39970;SDS011;35425;51.142;17.178;2024-01-27T13:14:59;2.85;;;1.08;;
39970;SDS011;35425;51.142;17.178;2024-01-27T13:17:28;3.05;;;1.25;;
39970;SDS011;35425;51.142;17.178;2024-01-27T13:19:55;5.15;;;1.30;;
39970;SDS011;35425;51.142;17.178;2024-01-27T13:22:21;3.95;;;1.20;;
39970;SDS011;35425;51.142;17.178;2024-01-27T13:24:51;3.45;;;1.10;;
39970;SDS011;35425;51.142;17.178;2024-01-27T13:27:18;3.85;;;1.40;;
39970;SDS011;35425;51.142;17.178;2024-01-27T13:29:45;4.28;;;1.25;;
39970;SDS011;35425;51.142;17.178;2024-01-27T13:32:12;2.67;;;1.00;;
39970;SDS011;35425;51.142;17.178;2024-01-27T13:34:39;2.30;;;1.20;;
39970;SDS011;35425;51.142;17.178;2024-01-27T13:37:07;3.35;;;1.10;;
39970;SDS011;35425;51.142;17.178;2024-01-27T13:39:35;2.55;;;1.00;;
39970;SDS011;35425;51.142;17.178;2024-01-27T13:42:03;3.90;;;1.38;;
39970;SDS011;35425;51.142;17.178;2024-01-27T13:44:30;4.03;;;1.13;;
39970;SDS011;35425;51.142;17.178;2024-01-27T13:46:59;2.05;;;0.90;;
39970;SDS011;35425;51.142;17.178;2024-01-27T13:49:27;4.43;;;1.17;;
39970;SDS011;35425;51.142;17.178;2024-01-27T13:51:57;2.40;;;1.10;;
39970;SDS011;35425;51.142;17.178;2024-01-27T13:54:24;3.20;;;1.10;;
39970;SDS011;35425;51.142;17.178;2024-01-27T13:56:51;3.30;;;1.17;;
39970;SDS011;35425;51.142;17.178;2024-01-27T13:59:18;3.80;;;1.10;;
39970;SDS011;35425;51.142;17.178;2024-01-27T14:01:45;3.78;;;1.02;;
39970;SDS011;35425;51.142;17.178;2024-01-27T14:04:16;4.15;;;1.40;;
39970;SDS011;35425;51.142;17.178;2024-01-27T14:06:43;2.90;;;1.10;;
39970;SDS011;35425;51.142;17.178;2024-01-27T14:09:10;4.47;;;1.20;;
39970;SDS011;35425;51.142;17.178;2024-01-27T14:11:37;3.15;;;1.08;;
39970;SDS011;35425;51.142;17.178;2024-01-27T14:14:04;2.08;;;1.00;;
39970;SDS011;35425;51.142;17.178;2024-01-27T14:16:31;2.88;;;1.00;;
39970;SDS011;35425;51.142;17.178;2024-01-27T14:18:58;3.80;;;1.20;;
39970;SDS011;35425;51.142;17.178;2024-01-27T14:21:25;3.00;;;0.88;;
39970;SDS011;35425;51.142;17.178;2024-01-27T14:23:57;2.47;;;0.98;;
39970;SDS011;35425;51.142;17.178;2024-01-27T14:26:29;3.25;;;1.38;;
39970;SDS011;35425;51.142;17.178;2024-01-27T14:28:56;3.95;;;1.27;;
39970;SDS011;35425;51.142;17.178;2024-01-27T14:31:23;3.95;;;1.45;;
39970;SDS011;35425;51.142;17.178;2024-01-27T14:33:51;3.25;;;1.13;;
39970;SDS011;35425;51.142;17.178;2024-01-27T14:36:18;2.60;;;0.77;;
39970;SDS011;35425;51.142;17.178;2024-01-27T14:38:45;3.05;;;0.68;;